sensor_id;sensor_type;location;lat;lon;timestamp;temperature;humidity
18950;DHT22;9608;49.288;8.130;2023-03-14T00:01:11;11.00;99.90
18950;DHT22;9608;49.288;8.130;2023-03-14T00:03:38;11.00;99.90
18950;DHT22;9608;49.288;8.130;2023-03-14T00:06:07;11.00;99.90
18950;DHT22;9608;49.288;8.130;2023-03-14T00:08:35;11.00;99.90
18950;DHT22;9608;49.288;8.130;2023-03-14T00:11:06;11.10;99.90
18950;DHT22;9608;49.288;8.130;2023-03-14T00:13:33;11.10;99.90
18950;DHT22;9608;49.288;8.130;2023-03-14T00:16:04;11.10;99.90
18950;DHT22;9608;49.288;8.130;2023-03-14T00:18:31;11.10;99.90
18950;DHT22;9608;49.288;8.130;2023-03-14T00:20:58;11.10;99.90
18950;DHT22;9608;49.288;8.130;2023-03-14T00:23:26;11.10;99.90
18950;DHT22;9608;49.288;8.130;2023-03-14T00:25:58;11.00;99.90
18950;DHT22;9608;49.288;8.130;2023-03-14T00:28:25;11.00;99.90
18950;DHT22;9608;49.288;8.130;2023-03-14T00:30:52;11.10;99.90
18950;DHT22;9608;49.288;8.130;2023-03-14T00:33:19;11.20;99.90
18950;DHT22;9608;49.288;8.130;2023-03-14T00:35:53;11.10;99.90
18950;DHT22;9608;49.288;8.130;2023-03-14T00:38:19;11.10;99.90
18950;DHT22;9608;49.288;8.130;2023-03-14T00:40:46;11.10;99.90
18950;DHT22;9608;49.288;8.130;2023-03-14T00:43:14;11.00;99.90
18950;DHT22;9608;49.288;8.130;2023-03-14T00:45:41;10.90;99.90
18950;DHT22;9608;49.288;8.130;2023-03-14T00:48:08;10.90;99.90
18950;DHT22;9608;49.288;8.130;2023-03-14T00:50:34;10.90;99.90
18950;DHT22;9608;49.288;8.130;2023-03-14T00:53:01;10.90;99.90
18950;DHT22;9608;49.288;8.130;2023-03-14T00:55:28;10.80;99.90
18950;DHT22;9608;49.288;8.130;2023-03-14T00:57:55;10.80;99.90
18950;DHT22;9608;49.288;8.130;2023-03-14T01:00:23;10.90;99.90
18950;DHT22;9608;49.288;8.130;2023-03-14T01:02:50;10.90;99.90
18950;DHT22;9608;49.288;8.130;2023-03-14T01:05:16;10.90;99.90
18950;DHT22;9608;49.288;8.130;2023-03-14T01:07:43;10.90;99.90
18950;DHT22;9608;49.288;8.130;2023-03-14T01:10:11;11.00;99.90
18950;DHT22;9608;49.288;8.130;2023-03-14T01:12:37;11.00;99.90
18950;DHT22;9608;49.288;8.130;2023-03-14T01:15:05;11.00;99.90
18950;DHT22;9608;49.288;8.130;2023-03-14T01:17:33;11.10;99.90
18950;DHT22;9608;49.288;8.130;2023-03-14T01:20:01;11.10;99.90
18950;DHT22;9608;49.288;8.130;2023-03-14T01:22:30;11.10;99.90
18950;DHT22;9608;49.288;8.130;2023-03-14T01:24:56;11.10;99.90
18950;DHT22;9608;49.288;8.130;2023-03-14T01:27:23;11.10;99.90
18950;DHT22;9608;49.288;8.130;2023-03-14T01:29:50;11.10;99.90
18950;DHT22;9608;49.288;8.130;2023-03-14T01:32:18;11.10;99.90
18950;DHT22;9608;49.288;8.130;2023-03-14T01:34:46;11.10;99.90
18950;DHT22;9608;49.288;8.130;2023-03-14T01:37:13;11.00;99.90
18950;DHT22;9608;49.288;8.130;2023-03-14T01:39:40;11.00;99.90
18950;DHT22;9608;49.288;8.130;2023-03-14T01:42:07;11.00;99.90
18950;DHT22;9608;49.288;8.130;2023-03-14T01:44:50;11.00;99.90
18950;DHT22;9608;49.288;8.130;2023-03-14T01:47:17;11.10;99.90
18950;DHT22;9608;49.288;8.130;2023-03-14T01:49:47;11.20;99.90
18950;DHT22;9608;49.288;8.130;2023-03-14T01:52:17;11.20;99.90
18950;DHT22;9608;49.288;8.130;2023-03-14T01:54:47;11.10;99.90
18950;DHT22;9608;49.288;8.130;2023-03-14T01:57:17;11.10;99.90
18950;DHT22;9608;49.288;8.130;2023-03-14T01:59:48;11.10;99.90
18950;DHT22;9608;49.288;8.130;2023-03-14T02:02:17;11.00;99.90
18950;DHT22;9608;49.288;8.130;2023-03-14T02:04:44;10.90;99.90
18950;DHT22;9608;49.288;8.130;2023-03-14T02:07:16;10.80;99.90
18950;DHT22;9608;49.288;8.130;2023-03-14T02:09:44;10.70;99.90
18950;DHT22;9608;49.288;8.130;2023-03-14T02:12:14;10.70;99.90
18950;DHT22;9608;49.288;8.130;2023-03-14T02:14:41;10.60;99.90
18950;DHT22;9608;49.288;8.130;2023-03-14T02:17:13;10.50;99.90
18950;DHT22;9608;49.288;8.130;2023-03-14T02:19:50;10.60;99.90
18950;DHT22;9608;49.288;8.130;2023-03-14T02:22:21;10.70;99.90
18950;DHT22;9608;49.288;8.130;2023-03-14T02:24:56;10.70;99.90
18950;DHT22;9608;49.288;8.130;2023-03-14T02:27:27;10.70;99.90
18950;DHT22;9608;49.288;8.130;2023-03-14T02:29:56;10.70;99.90
18950;DHT22;9608;49.288;8.130;2023-03-14T02:32:26;10.80;99.90
18950;DHT22;9608;49.288;8.130;2023-03-14T02:34:55;10.80;99.90
18950;DHT22;9608;49.288;8.130;2023-03-14T02:37:25;10.90;99.90
18950;DHT22;9608;49.288;8.130;2023-03-14T02:39:54;11.00;99.90
18950;DHT22;9608;49.288;8.130;2023-03-14T02:42:21;11.10;99.90
18950;DHT22;9608;49.288;8.130;2023-03-14T02:44:54;11.00;99.90
18950;DHT22;9608;49.288;8.130;2023-03-14T02:47:26;11.00;99.90
18950;DHT22;9608;49.288;8.130;2023-03-14T02:49:57;11.00;99.90
18950;DHT22;9608;49.288;8.130;2023-03-14T02:52:24;11.00;99.90
18950;DHT22;9608;49.288;8.130;2023-03-14T02:54:51;11.00;99.90
18950;DHT22;9608;49.288;8.130;2023-03-14T02:57:18;11.00;99.90
18950;DHT22;9608;49.288;8.130;2023-03-14T02:59:45;11.00;99.90
18950;DHT22;9608;49.288;8.130;2023-03-14T03:02:13;11.00;99.90
18950;DHT22;9608;49.288;8.130;2023-03-14T03:04:39;11.10;99.90
18950;DHT22;9608;49.288;8.130;2023-03-14T03:07:06;11.10;99.90
18950;DHT22;9608;49.288;8.130;2023-03-14T03:09:33;11.10;99.90
18950;DHT22;9608;49.288;8.130;2023-03-14T03:12:00;11.10;99.90
18950;DHT22;9608;49.288;8.130;2023-03-14T03:14:27;11.00;99.90
18950;DHT22;9608;49.288;8.130;2023-03-14T03:16:53;11.00;99.90
18950;DHT22;9608;49.288;8.130;2023-03-14T03:19:21;11.00;99.90
18950;DHT22;9608;49.288;8.130;2023-03-14T03:21:48;11.00;99.90
18950;DHT22;9608;49.288;8.130;2023-03-14T03:24:15;10.90;99.90
18950;DHT22;9608;49.288;8.130;2023-03-14T03:26:41;10.90;99.90
18950;DHT22;9608;49.288;8.130;2023-03-14T03:29:08;10.90;99.90
18950;DHT22;9608;49.288;8.130;2023-03-14T03:31:36;10.90;99.90
18950;DHT22;9608;49.288;8.130;2023-03-14T03:34:03;10.90;99.90
18950;DHT22;9608;49.288;8.130;2023-03-14T03:36:32;10.90;99.90
18950;DHT22;9608;49.288;8.130;2023-03-14T03:38:59;10.90;99.90
18950;DHT22;9608;49.288;8.130;2023-03-14T03:41:26;10.90;99.90
18950;DHT22;9608;49.288;8.130;2023-03-14T03:43:52;10.90;99.90
18950;DHT22;9608;49.288;8.130;2023-03-14T03:46:20;10.90;99.90
18950;DHT22;9608;49.288;8.130;2023-03-14T03:48:46;10.90;99.90
18950;DHT22;9608;49.288;8.130;2023-03-14T03:51:13;10.90;99.90
18950;DHT22;9608;49.288;8.130;2023-03-14T03:53:42;10.90;99.90
18950;DHT22;9608;49.288;8.130;2023-03-14T03:56:09;10.90;99.90
18950;DHT22;9608;49.288;8.130;2023-03-14T03:58:36;10.90;99.90
18950;DHT22;9608;49.288;8.130;2023-03-14T04:01:04;10.90;99.90
18950;DHT22;9608;49.288;8.130;2023-03-14T04:03:34;10.90;99.90
18950;DHT22;9608;49.288;8.130;2023-03-14T04:06:02;10.90;99.90
18950;DHT22;9608;49.288;8.130;2023-03-14T04:08:29;10.90;99.90
18950;DHT22;9608;49.288;8.130;2023-03-14T04:10:58;10.90;99.90
18950;DHT22;9608;49.288;8.130;2023-03-14T04:13:25;10.80;99.90
18950;DHT22;9608;49.288;8.130;2023-03-14T04:15:53;10.80;99.90
18950;DHT22;9608;49.288;8.130;2023-03-14T04:18:20;10.80;99.90
18950;DHT22;9608;49.288;8.130;2023-03-14T04:20:51;10.80;99.90
18950;DHT22;9608;49.288;8.130;2023-03-14T04:23:17;10.70;99.90
18950;DHT22;9608;49.288;8.130;2023-03-14T04:25:44;10.70;99.90
18950;DHT22;9608;49.288;8.130;2023-03-14T04:28:12;10.70;99.90
18950;DHT22;9608;49.288;8.130;2023-03-14T04:30:39;10.70;99.90
18950;DHT22;9608;49.288;8.130;2023-03-14T04:33:06;10.60;99.90
18950;DHT22;9608;49.288;8.130;2023-03-14T04:35:33;10.60;99.90
18950;DHT22;9608;49.288;8.130;2023-03-14T04:38:00;10.60;99.90
18950;DHT22;9608;49.288;8.130;2023-03-14T04:40:26;10.50;99.90
18950;DHT22;9608;49.288;8.130;2023-03-14T04:42:53;10.60;99.90
18950;DHT22;9608;49.288;8.130;2023-03-14T04:45:21;10.60;99.90
18950;DHT22;9608;49.288;8.130;2023-03-14T04:47:48;10.50;99.90
18950;DHT22;9608;49.288;8.130;2023-03-14T04:50:15;10.50;99.90
18950;DHT22;9608;49.288;8.130;2023-03-14T04:52:41;10.50;99.90
18950;DHT22;9608;49.288;8.130;2023-03-14T04:55:08;10.40;99.90
18950;DHT22;9608;49.288;8.130;2023-03-14T04:57:35;10.40;99.90
18950;DHT22;9608;49.288;8.130;2023-03-14T05:00:02;10.40;99.90
18950;DHT22;9608;49.288;8.130;2023-03-14T05:02:34;10.30;99.90
18950;DHT22;9608;49.288;8.130;2023-03-14T05:05:00;10.30;99.90
18950;DHT22;9608;49.288;8.130;2023-03-14T05:07:27;10.30;99.90
18950;DHT22;9608;49.288;8.130;2023-03-14T05:09:54;10.20;99.90
18950;DHT22;9608;49.288;8.130;2023-03-14T05:12:21;10.20;99.90
18950;DHT22;9608;49.288;8.130;2023-03-14T05:14:47;10.20;99.90
18950;DHT22;9608;49.288;8.130;2023-03-14T05:17:14;10.20;99.90
18950;DHT22;9608;49.288;8.130;2023-03-14T05:19:43;10.30;99.90
18950;DHT22;9608;49.288;8.130;2023-03-14T05:22:10;10.40;99.90
18950;DHT22;9608;49.288;8.130;2023-03-14T05:24:37;10.40;99.90
18950;DHT22;9608;49.288;8.130;2023-03-14T05:27:04;10.40;99.90
18950;DHT22;9608;49.288;8.130;2023-03-14T05:29:33;10.50;99.90
18950;DHT22;9608;49.288;8.130;2023-03-14T05:31:59;10.30;99.90
18950;DHT22;9608;49.288;8.130;2023-03-14T05:34:26;10.20;99.90
18950;DHT22;9608;49.288;8.130;2023-03-14T05:36:54;10.20;99.90
18950;DHT22;9608;49.288;8.130;2023-03-14T05:39:21;10.20;99.90
18950;DHT22;9608;49.288;8.130;2023-03-14T05:41:48;10.30;99.90
18950;DHT22;9608;49.288;8.130;2023-03-14T05:44:15;10.30;99.90
18950;DHT22;9608;49.288;8.130;2023-03-14T05:46:42;10.40;99.90
18950;DHT22;9608;49.288;8.130;2023-03-14T05:49:09;10.40;99.90
18950;DHT22;9608;49.288;8.130;2023-03-14T05:51:35;10.40;99.90
18950;DHT22;9608;49.288;8.130;2023-03-14T05:54:03;10.40;99.90
18950;DHT22;9608;49.288;8.130;2023-03-14T05:56:30;10.50;99.90
18950;DHT22;9608;49.288;8.130;2023-03-14T05:58:57;10.50;99.90
18950;DHT22;9608;49.288;8.130;2023-03-14T06:01:23;10.50;99.90
18950;DHT22;9608;49.288;8.130;2023-03-14T06:03:50;10.50;99.90
18950;DHT22;9608;49.288;8.130;2023-03-14T06:06:17;10.50;99.90
18950;DHT22;9608;49.288;8.130;2023-03-14T06:08:43;10.50;99.90
18950;DHT22;9608;49.288;8.130;2023-03-14T06:11:11;10.50;99.90
18950;DHT22;9608;49.288;8.130;2023-03-14T06:13:38;10.50;99.90
18950;DHT22;9608;49.288;8.130;2023-03-14T06:16:05;10.50;99.90
18950;DHT22;9608;49.288;8.130;2023-03-14T06:18:32;10.50;99.90
18950;DHT22;9608;49.288;8.130;2023-03-14T06:20:59;10.60;99.90
18950;DHT22;9608;49.288;8.130;2023-03-14T06:23:26;10.50;99.90
18950;DHT22;9608;49.288;8.130;2023-03-14T06:25:55;10.50;99.90
18950;DHT22;9608;49.288;8.130;2023-03-14T06:28:24;10.50;99.90
18950;DHT22;9608;49.288;8.130;2023-03-14T06:30:50;10.60;99.90
18950;DHT22;9608;49.288;8.130;2023-03-14T06:33:17;10.60;99.90
18950;DHT22;9608;49.288;8.130;2023-03-14T06:35:44;10.70;99.90
18950;DHT22;9608;49.288;8.130;2023-03-14T06:38:11;10.60;99.90
18950;DHT22;9608;49.288;8.130;2023-03-14T06:40:37;10.60;99.90
18950;DHT22;9608;49.288;8.130;2023-03-14T06:43:04;10.70;99.90
18950;DHT22;9608;49.288;8.130;2023-03-14T06:45:32;10.80;99.90
18950;DHT22;9608;49.288;8.130;2023-03-14T06:47:59;10.70;99.90
18950;DHT22;9608;49.288;8.130;2023-03-14T06:50:25;10.80;99.90
18950;DHT22;9608;49.288;8.130;2023-03-14T06:52:52;10.80;99.90
18950;DHT22;9608;49.288;8.130;2023-03-14T06:55:19;10.90;99.90
18950;DHT22;9608;49.288;8.130;2023-03-14T06:57:46;10.90;99.90
18950;DHT22;9608;49.288;8.130;2023-03-14T07:00:13;10.90;99.90
18950;DHT22;9608;49.288;8.130;2023-03-14T07:02:42;10.80;99.90
18950;DHT22;9608;49.288;8.130;2023-03-14T07:05:10;10.70;99.90
18950;DHT22;9608;49.288;8.130;2023-03-14T07:07:37;10.70;99.90
18950;DHT22;9608;49.288;8.130;2023-03-14T07:10:04;10.60;99.90
18950;DHT22;9608;49.288;8.130;2023-03-14T07:12:34;10.50;99.90
18950;DHT22;9608;49.288;8.130;2023-03-14T07:15:01;10.40;99.90
18950;DHT22;9608;49.288;8.130;2023-03-14T07:17:31;10.40;99.90
18950;DHT22;9608;49.288;8.130;2023-03-14T07:20:00;10.30;99.90
18950;DHT22;9608;49.288;8.130;2023-03-14T07:22:29;10.30;99.90
18950;DHT22;9608;49.288;8.130;2023-03-14T07:24:56;10.40;99.90
18950;DHT22;9608;49.288;8.130;2023-03-14T07:27:24;10.40;99.90
18950;DHT22;9608;49.288;8.130;2023-03-14T07:29:51;10.40;99.90
18950;DHT22;9608;49.288;8.130;2023-03-14T07:32:18;10.30;99.90
18950;DHT22;9608;49.288;8.130;2023-03-14T07:34:45;10.40;99.90
18950;DHT22;9608;49.288;8.130;2023-03-14T07:37:15;10.40;99.90
18950;DHT22;9608;49.288;8.130;2023-03-14T07:39:43;10.50;99.90
18950;DHT22;9608;49.288;8.130;2023-03-14T07:42:10;10.50;99.90
18950;DHT22;9608;49.288;8.130;2023-03-14T07:44:37;10.70;99.90
18950;DHT22;9608;49.288;8.130;2023-03-14T07:47:05;10.70;99.90
18950;DHT22;9608;49.288;8.130;2023-03-14T07:49:32;10.70;99.90
18950;DHT22;9608;49.288;8.130;2023-03-14T07:52:00;10.80;99.90
18950;DHT22;9608;49.288;8.130;2023-03-14T07:54:31;10.80;99.90
18950;DHT22;9608;49.288;8.130;2023-03-14T07:57:01;10.90;99.90
18950;DHT22;9608;49.288;8.130;2023-03-14T07:59:31;11.00;99.90
18950;DHT22;9608;49.288;8.130;2023-03-14T08:01:59;11.00;99.90
18950;DHT22;9608;49.288;8.130;2023-03-14T08:04:27;11.10;99.90
18950;DHT22;9608;49.288;8.130;2023-03-14T08:06:55;11.10;99.90
18950;DHT22;9608;49.288;8.130;2023-03-14T08:09:22;11.10;99.90
18950;DHT22;9608;49.288;8.130;2023-03-14T08:11:51;11.10;99.90
18950;DHT22;9608;49.288;8.130;2023-03-14T08:14:19;11.10;99.90
18950;DHT22;9608;49.288;8.130;2023-03-14T08:16:49;11.20;99.90
18950;DHT22;9608;49.288;8.130;2023-03-14T08:19:17;11.10;99.90
18950;DHT22;9608;49.288;8.130;2023-03-14T08:21:44;11.00;99.90
18950;DHT22;9608;49.288;8.130;2023-03-14T08:24:11;11.00;99.90
18950;DHT22;9608;49.288;8.130;2023-03-14T08:26:39;11.00;99.90
18950;DHT22;9608;49.288;8.130;2023-03-14T08:29:08;10.90;99.90
18950;DHT22;9608;49.288;8.130;2023-03-14T08:31:42;10.90;99.90
18950;DHT22;9608;49.288;8.130;2023-03-14T08:34:10;11.00;99.90
18950;DHT22;9608;49.288;8.130;2023-03-14T08:36:38;10.80;99.90
18950;DHT22;9608;49.288;8.130;2023-03-14T08:39:12;10.80;99.90
18950;DHT22;9608;49.288;8.130;2023-03-14T08:41:39;10.90;99.90
18950;DHT22;9608;49.288;8.130;2023-03-14T08:44:10;10.90;99.90
18950;DHT22;9608;49.288;8.130;2023-03-14T08:46:38;10.80;99.90
18950;DHT22;9608;49.288;8.130;2023-03-14T08:49:05;10.60;99.90
18950;DHT22;9608;49.288;8.130;2023-03-14T08:51:32;10.60;99.90
18950;DHT22;9608;49.288;8.130;2023-03-14T08:53:59;10.60;99.90
18950;DHT22;9608;49.288;8.130;2023-03-14T08:56:26;10.70;99.90
18950;DHT22;9608;49.288;8.130;2023-03-14T08:58:53;10.60;99.90
18950;DHT22;9608;49.288;8.130;2023-03-14T09:01:23;10.60;99.90
18950;DHT22;9608;49.288;8.130;2023-03-14T09:03:52;10.60;99.90
18950;DHT22;9608;49.288;8.130;2023-03-14T09:06:20;10.60;99.90
18950;DHT22;9608;49.288;8.130;2023-03-14T09:08:47;10.70;99.90
18950;DHT22;9608;49.288;8.130;2023-03-14T09:11:14;10.70;99.90
18950;DHT22;9608;49.288;8.130;2023-03-14T09:13:43;10.80;99.90
18950;DHT22;9608;49.288;8.130;2023-03-14T09:16:10;10.70;99.90
18950;DHT22;9608;49.288;8.130;2023-03-14T09:18:39;10.70;99.90
18950;DHT22;9608;49.288;8.130;2023-03-14T09:21:07;10.80;99.90
18950;DHT22;9608;49.288;8.130;2023-03-14T09:23:34;11.00;99.90
18950;DHT22;9608;49.288;8.130;2023-03-14T09:26:01;11.00;99.90
18950;DHT22;9608;49.288;8.130;2023-03-14T09:28:29;11.10;99.90
18950;DHT22;9608;49.288;8.130;2023-03-14T09:30:56;11.00;99.90
18950;DHT22;9608;49.288;8.130;2023-03-14T09:33:24;11.00;99.90
18950;DHT22;9608;49.288;8.130;2023-03-14T09:35:53;11.00;99.90
18950;DHT22;9608;49.288;8.130;2023-03-14T09:38:23;11.00;99.90
18950;DHT22;9608;49.288;8.130;2023-03-14T09:40:57;10.90;99.90
18950;DHT22;9608;49.288;8.130;2023-03-14T09:43:26;11.00;99.90
18950;DHT22;9608;49.288;8.130;2023-03-14T09:45:57;11.00;99.90
18950;DHT22;9608;49.288;8.130;2023-03-14T09:48:27;11.00;99.90
18950;DHT22;9608;49.288;8.130;2023-03-14T09:50:58;11.10;99.90
18950;DHT22;9608;49.288;8.130;2023-03-14T09:53:27;11.10;99.90
18950;DHT22;9608;49.288;8.130;2023-03-14T09:55:58;11.30;99.90
18950;DHT22;9608;49.288;8.130;2023-03-14T09:58:26;11.30;99.90
18950;DHT22;9608;49.288;8.130;2023-03-14T10:00:56;11.50;99.90
18950;DHT22;9608;49.288;8.130;2023-03-14T10:03:27;11.60;99.90
18950;DHT22;9608;49.288;8.130;2023-03-14T10:05:57;11.80;99.90
18950;DHT22;9608;49.288;8.130;2023-03-14T10:08:24;11.80;99.90
18950;DHT22;9608;49.288;8.130;2023-03-14T10:10:52;11.80;99.90
18950;DHT22;9608;49.288;8.130;2023-03-14T10:13:21;11.80;99.90
18950;DHT22;9608;49.288;8.130;2023-03-14T10:15:52;11.70;99.90
18950;DHT22;9608;49.288;8.130;2023-03-14T10:18:20;11.70;99.90
18950;DHT22;9608;49.288;8.130;2023-03-14T10:20:51;11.70;99.90
18950;DHT22;9608;49.288;8.130;2023-03-14T10:23:32;11.70;99.90
18950;DHT22;9608;49.288;8.130;2023-03-14T10:26:07;11.60;99.90
18950;DHT22;9608;49.288;8.130;2023-03-14T10:28:39;11.50;99.90
18950;DHT22;9608;49.288;8.130;2023-03-14T10:31:09;11.40;99.90
18950;DHT22;9608;49.288;8.130;2023-03-14T10:33:37;11.40;99.90
18950;DHT22;9608;49.288;8.130;2023-03-14T10:36:06;11.30;99.90
18950;DHT22;9608;49.288;8.130;2023-03-14T10:38:43;11.10;99.90
18950;DHT22;9608;49.288;8.130;2023-03-14T10:41:23;11.10;99.90
18950;DHT22;9608;49.288;8.130;2023-03-14T10:43:51;11.10;99.90
18950;DHT22;9608;49.288;8.130;2023-03-14T10:46:24;11.10;99.90
18950;DHT22;9608;49.288;8.130;2023-03-14T10:48:53;11.10;99.90
18950;DHT22;9608;49.288;8.130;2023-03-14T10:51:25;11.20;99.90
18950;DHT22;9608;49.288;8.130;2023-03-14T10:54:01;11.00;99.90
18950;DHT22;9608;49.288;8.130;2023-03-14T10:56:35;11.00;99.90
18950;DHT22;9608;49.288;8.130;2023-03-14T10:59:03;11.00;99.90
18950;DHT22;9608;49.288;8.130;2023-03-14T11:01:37;10.90;99.90
18950;DHT22;9608;49.288;8.130;2023-03-14T11:04:15;11.00;99.90
18950;DHT22;9608;49.288;8.130;2023-03-14T11:06:52;11.00;99.90
18950;DHT22;9608;49.288;8.130;2023-03-14T11:09:29;10.90;99.90
18950;DHT22;9608;49.288;8.130;2023-03-14T11:12:04;11.00;99.90
18950;DHT22;9608;49.288;8.130;2023-03-14T11:14:44;10.70;99.90
18950;DHT22;9608;49.288;8.130;2023-03-14T11:17:16;10.80;99.90
18950;DHT22;9608;49.288;8.130;2023-03-14T11:19:52;10.90;99.90
18950;DHT22;9608;49.288;8.130;2023-03-14T11:22:28;11.00;99.90
18950;DHT22;9608;49.288;8.130;2023-03-14T11:25:14;11.30;99.90
18950;DHT22;9608;49.288;8.130;2023-03-14T11:27:46;11.40;99.90
18950;DHT22;9608;49.288;8.130;2023-03-14T11:30:20;11.50;99.90
18950;DHT22;9608;49.288;8.130;2023-03-14T11:32:56;11.20;99.90
18950;DHT22;9608;49.288;8.130;2023-03-14T11:35:29;11.10;99.90
18950;DHT22;9608;49.288;8.130;2023-03-14T11:38:03;11.10;99.90
18950;DHT22;9608;49.288;8.130;2023-03-14T11:40:34;11.20;99.90
18950;DHT22;9608;49.288;8.130;2023-03-14T11:43:06;11.10;99.90
18950;DHT22;9608;49.288;8.130;2023-03-14T11:45:38;11.00;99.90
18950;DHT22;9608;49.288;8.130;2023-03-14T11:48:25;10.70;99.90
18950;DHT22;9608;49.288;8.130;2023-03-14T11:50:56;10.70;99.90
18950;DHT22;9608;49.288;8.130;2023-03-14T11:53:35;10.50;99.90
18950;DHT22;9608;49.288;8.130;2023-03-14T11:56:11;10.40;99.90
18950;DHT22;9608;49.288;8.130;2023-03-14T11:58:48;10.20;99.90
18950;DHT22;9608;49.288;8.130;2023-03-14T12:01:18;10.00;99.90
18950;DHT22;9608;49.288;8.130;2023-03-14T12:03:54;10.00;99.90
18950;DHT22;9608;49.288;8.130;2023-03-14T12:06:25;10.00;99.90
18950;DHT22;9608;49.288;8.130;2023-03-14T12:08:53;10.00;99.90
18950;DHT22;9608;49.288;8.130;2023-03-14T12:11:33;10.10;99.90
18950;DHT22;9608;49.288;8.130;2023-03-14T12:14:02;9.90;99.90
18950;DHT22;9608;49.288;8.130;2023-03-14T12:16:35;9.70;99.90
18950;DHT22;9608;49.288;8.130;2023-03-14T12:19:27;9.30;99.90
18950;DHT22;9608;49.288;8.130;2023-03-14T12:22:01;9.10;99.90
18950;DHT22;9608;49.288;8.130;2023-03-14T12:24:34;9.00;99.90
18950;DHT22;9608;49.288;8.130;2023-03-14T12:27:05;9.00;99.90
18950;DHT22;9608;49.288;8.130;2023-03-14T12:29:59;9.10;99.90
18950;DHT22;9608;49.288;8.130;2023-03-14T12:32:26;9.20;99.90
18950;DHT22;9608;49.288;8.130;2023-03-14T12:34:55;9.30;99.90
18950;DHT22;9608;49.288;8.130;2023-03-14T12:37:32;9.40;99.90
18950;DHT22;9608;49.288;8.130;2023-03-14T12:40:11;9.50;99.90
18950;DHT22;9608;49.288;8.130;2023-03-14T12:42:51;9.60;99.90
18950;DHT22;9608;49.288;8.130;2023-03-14T12:45:28;9.80;99.90
18950;DHT22;9608;49.288;8.130;2023-03-14T12:48:05;9.90;99.90
18950;DHT22;9608;49.288;8.130;2023-03-14T12:50:38;10.10;99.90
18950;DHT22;9608;49.288;8.130;2023-03-14T12:59:20;10.30;99.90
18950;DHT22;9608;49.288;8.130;2023-03-14T13:01:54;10.50;99.90
18950;DHT22;9608;49.288;8.130;2023-03-14T13:04:27;10.50;99.90
18950;DHT22;9608;49.288;8.130;2023-03-14T13:06:56;10.60;99.90
18950;DHT22;9608;49.288;8.130;2023-03-14T13:12:25;10.10;99.90
18950;DHT22;9608;49.288;8.130;2023-03-14T13:14:59;10.20;99.90
18950;DHT22;9608;49.288;8.130;2023-03-14T13:17:32;10.10;99.90
18950;DHT22;9608;49.288;8.130;2023-03-14T13:20:02;10.20;99.90
18950;DHT22;9608;49.288;8.130;2023-03-14T13:22:34;10.40;99.90
18950;DHT22;9608;49.288;8.130;2023-03-14T13:25:05;10.70;99.90
18950;DHT22;9608;49.288;8.130;2023-03-14T13:27:34;10.70;99.90
18950;DHT22;9608;49.288;8.130;2023-03-14T13:30:13;10.70;99.90
18950;DHT22;9608;49.288;8.130;2023-03-14T13:32:43;10.80;99.90
18950;DHT22;9608;49.288;8.130;2023-03-14T13:35:16;11.20;99.90
18950;DHT22;9608;49.288;8.130;2023-03-14T13:37:43;11.10;99.90
18950;DHT22;9608;49.288;8.130;2023-03-14T13:40:20;11.00;99.90
18950;DHT22;9608;49.288;8.130;2023-03-14T13:42:47;11.10;99.90
18950;DHT22;9608;49.288;8.130;2023-03-14T13:45:14;11.00;99.90
18950;DHT22;9608;49.288;8.130;2023-03-14T13:47:42;11.00;99.90
18950;DHT22;9608;49.288;8.130;2023-03-14T13:50:16;11.10;99.90
18950;DHT22;9608;49.288;8.130;2023-03-14T13:52:44;11.20;99.90
18950;DHT22;9608;49.288;8.130;2023-03-14T13:55:15;11.20;99.90
18950;DHT22;9608;49.288;8.130;2023-03-14T13:57:44;11.30;99.90
18950;DHT22;9608;49.288;8.130;2023-03-14T14:00:18;11.10;99.90
18950;DHT22;9608;49.288;8.130;2023-03-14T14:02:48;11.00;99.90
18950;DHT22;9608;49.288;8.130;2023-03-14T14:05:15;10.80;99.90
18950;DHT22;9608;49.288;8.130;2023-03-14T14:07:43;10.70;99.90
18950;DHT22;9608;49.288;8.130;2023-03-14T14:10:12;10.60;99.90
18950;DHT22;9608;49.288;8.130;2023-03-14T14:12:42;10.50;99.90
18950;DHT22;9608;49.288;8.130;2023-03-14T14:15:15;10.40;99.90
18950;DHT22;9608;49.288;8.130;2023-03-14T14:17:48;10.30;99.90
18950;DHT22;9608;49.288;8.130;2023-03-14T14:20:21;10.30;99.90
18950;DHT22;9608;49.288;8.130;2023-03-14T14:22:49;10.20;99.90
18950;DHT22;9608;49.288;8.130;2023-03-14T14:25:17;10.20;99.90
18950;DHT22;9608;49.288;8.130;2023-03-14T14:27:47;10.20;99.90
18950;DHT22;9608;49.288;8.130;2023-03-14T14:30:30;10.30;99.90
18950;DHT22;9608;49.288;8.130;2023-03-14T14:33:19;10.40;99.90
18950;DHT22;9608;49.288;8.130;2023-03-14T14:35:52;10.60;99.90
18950;DHT22;9608;49.288;8.130;2023-03-14T14:38:20;10.70;99.90
18950;DHT22;9608;49.288;8.130;2023-03-14T14:40:49;10.70;99.90
18950;DHT22;9608;49.288;8.130;2023-03-14T14:43:19;10.70;99.90
18950;DHT22;9608;49.288;8.130;2023-03-14T14:45:49;10.70;99.90
18950;DHT22;9608;49.288;8.130;2023-03-14T14:48:21;10.70;99.90
18950;DHT22;9608;49.288;8.130;2023-03-14T14:50:54;10.60;99.90
18950;DHT22;9608;49.288;8.130;2023-03-14T14:53:23;10.80;99.90
18950;DHT22;9608;49.288;8.130;2023-03-14T14:55:51;10.80;99.90
18950;DHT22;9608;49.288;8.130;2023-03-14T14:58:22;10.80;99.90
18950;DHT22;9608;49.288;8.130;2023-03-14T15:00:53;10.80;99.90
18950;DHT22;9608;49.288;8.130;2023-03-14T15:03:21;10.70;99.90
18950;DHT22;9608;49.288;8.130;2023-03-14T15:05:48;10.70;99.90
18950;DHT22;9608;49.288;8.130;2023-03-14T15:08:15;10.80;99.90
18950;DHT22;9608;49.288;8.130;2023-03-14T15:10:41;10.80;99.90
18950;DHT22;9608;49.288;8.130;2023-03-14T15:13:08;10.80;99.90
18950;DHT22;9608;49.288;8.130;2023-03-14T15:15:35;10.70;99.90
18950;DHT22;9608;49.288;8.130;2023-03-14T15:18:02;10.60;99.90
18950;DHT22;9608;49.288;8.130;2023-03-14T15:20:30;10.60;99.90
18950;DHT22;9608;49.288;8.130;2023-03-14T15:22:57;10.60;99.90
18950;DHT22;9608;49.288;8.130;2023-03-14T15:25:24;10.60;99.90
18950;DHT22;9608;49.288;8.130;2023-03-14T15:27:51;10.70;99.90
18950;DHT22;9608;49.288;8.130;2023-03-14T15:30:18;10.60;99.90
18950;DHT22;9608;49.288;8.130;2023-03-14T15:32:45;10.50;99.90
18950;DHT22;9608;49.288;8.130;2023-03-14T15:35:12;10.30;99.90
18950;DHT22;9608;49.288;8.130;2023-03-14T15:37:41;10.30;99.90
18950;DHT22;9608;49.288;8.130;2023-03-14T15:40:12;10.20;99.90
18950;DHT22;9608;49.288;8.130;2023-03-14T15:42:39;10.20;99.90
18950;DHT22;9608;49.288;8.130;2023-03-14T15:45:07;10.10;99.90
18950;DHT22;9608;49.288;8.130;2023-03-14T15:47:34;10.00;99.90
18950;DHT22;9608;49.288;8.130;2023-03-14T15:50:01;10.00;99.90
18950;DHT22;9608;49.288;8.130;2023-03-14T15:52:27;9.80;99.90
18950;DHT22;9608;49.288;8.130;2023-03-14T15:54:56;9.60;99.90
18950;DHT22;9608;49.288;8.130;2023-03-14T15:57:22;9.50;99.90
18950;DHT22;9608;49.288;8.130;2023-03-14T15:59:50;9.40;99.90
18950;DHT22;9608;49.288;8.130;2023-03-14T16:02:16;9.40;99.90
18950;DHT22;9608;49.288;8.130;2023-03-14T16:04:43;9.30;99.90
18950;DHT22;9608;49.288;8.130;2023-03-14T16:07:10;9.40;99.90
18950;DHT22;9608;49.288;8.130;2023-03-14T16:09:37;9.40;99.90